sensor_id;sensor_type;location;lat;lon;timestamp;P1;durP1;ratioP1;P2;durP2;ratioP2
11988;SDS011;6054;50.966;7.094;2022-07-23T00:00:09;15.45;;;12.20;;
11988;SDS011;6054;50.966;7.094;2022-07-23T00:02:37;15.55;;;12.50;;
11988;SDS011;6054;50.966;7.094;2022-07-23T00:05:04;14.65;;;12.50;;
11988;SDS011;6054;50.966;7.094;2022-07-23T00:07:32;13.30;;;11.32;;
11988;SDS011;6054;50.966;7.094;2022-07-23T00:09:59;13.77;;;11.35;;
11988;SDS011;6054;50.966;7.094;2022-07-23T00:12:25;14.15;;;11.57;;
11988;SDS011;6054;50.966;7.094;2022-07-23T00:14:52;13.65;;;12.23;;
11988;SDS011;6054;50.966;7.094;2022-07-23T00:17:19;14.50;;;12.18;;
11988;SDS011;6054;50.966;7.094;2022-07-23T00:19:46;15.52;;;12.50;;
11988;SDS011;6054;50.966;7.094;2022-07-23T00:22:12;14.63;;;12.75;;
11988;SDS011;6054;50.966;7.094;2022-07-23T00:24:41;16.15;;;13.00;;
11988;SDS011;6054;50.966;7.094;2022-07-23T00:27:07;14.20;;;11.88;;
11988;SDS011;6054;50.966;7.094;2022-07-23T00:29:34;14.70;;;12.15;;
11988;SDS011;6054;50.966;7.094;2022-07-23T00:32:01;14.13;;;12.38;;
11988;SDS011;6054;50.966;7.094;2022-07-23T00:34:28;17.30;;;11.85;;
11988;SDS011;6054;50.966;7.094;2022-07-23T00:36:54;13.80;;;12.07;;
11988;SDS011;6054;50.966;7.094;2022-07-23T00:39:21;15.95;;;12.02;;
11988;SDS011;6054;50.966;7.094;2022-07-23T00:41:50;15.48;;;11.65;;
11988;SDS011;6054;50.966;7.094;2022-07-23T00:44:18;14.30;;;12.18;;
11988;SDS011;6054;50.966;7.094;2022-07-23T00:46:47;12.60;;;11.30;;
11988;SDS011;6054;50.966;7.094;2022-07-23T00:49:17;13.77;;;10.70;;
11988;SDS011;6054;50.966;7.094;2022-07-23T00:51:44;13.13;;;10.85;;
11988;SDS011;6054;50.966;7.094;2022-07-23T00:56:41;13.15;;;10.63;;
11988;SDS011;6054;50.966;7.094;2022-07-23T00:59:11;12.95;;;11.57;;
11988;SDS011;6054;50.966;7.094;2022-07-23T01:01:38;15.20;;;11.38;;
11988;SDS011;6054;50.966;7.094;2022-07-23T01:04:05;14.07;;;11.65;;
11988;SDS011;6054;50.966;7.094;2022-07-23T01:06:33;14.50;;;10.98;;
11988;SDS011;6054;50.966;7.094;2022-07-23T01:09:02;15.00;;;11.50;;
11988;SDS011;6054;50.966;7.094;2022-07-23T01:11:29;15.75;;;11.55;;
11988;SDS011;6054;50.966;7.094;2022-07-23T01:13:57;16.08;;;11.93;;
11988;SDS011;6054;50.966;7.094;2022-07-23T01:16:25;15.80;;;11.95;;
11988;SDS011;6054;50.966;7.094;2022-07-23T01:18:52;19.02;;;13.07;;
11988;SDS011;6054;50.966;7.094;2022-07-23T01:21:19;16.90;;;12.77;;
11988;SDS011;6054;50.966;7.094;2022-07-23T01:23:48;16.85;;;13.32;;
11988;SDS011;6054;50.966;7.094;2022-07-23T01:26:15;18.77;;;13.73;;
11988;SDS011;6054;50.966;7.094;2022-07-23T01:28:42;18.38;;;14.57;;
11988;SDS011;6054;50.966;7.094;2022-07-23T01:31:09;20.70;;;13.77;;
11988;SDS011;6054;50.966;7.094;2022-07-23T01:33:36;19.25;;;14.93;;
11988;SDS011;6054;50.966;7.094;2022-07-23T01:36:03;14.80;;;13.30;;
11988;SDS011;6054;50.966;7.094;2022-07-23T01:38:30;17.48;;;13.63;;
11988;SDS011;6054;50.966;7.094;2022-07-23T01:40:58;16.77;;;13.50;;
11988;SDS011;6054;50.966;7.094;2022-07-23T01:43:25;17.50;;;14.05;;
11988;SDS011;6054;50.966;7.094;2022-07-23T01:45:52;17.55;;;13.80;;
11988;SDS011;6054;50.966;7.094;2022-07-23T01:48:19;15.20;;;13.15;;
11988;SDS011;6054;50.966;7.094;2022-07-23T01:50:46;17.52;;;13.00;;
11988;SDS011;6054;50.966;7.094;2022-07-23T01:53:13;15.13;;;12.48;;
11988;SDS011;6054;50.966;7.094;2022-07-23T01:55:40;17.40;;;14.13;;
11988;SDS011;6054;50.966;7.094;2022-07-23T01:58:09;15.75;;;12.98;;
11988;SDS011;6054;50.966;7.094;2022-07-23T02:00:35;16.77;;;13.00;;
11988;SDS011;6054;50.966;7.094;2022-07-23T02:03:03;16.75;;;12.77;;
11988;SDS011;6054;50.966;7.094;2022-07-23T02:05:29;16.45;;;13.68;;
11988;SDS011;6054;50.966;7.094;2022-07-23T02:07:57;15.30;;;12.90;;
11988;SDS011;6054;50.966;7.094;2022-07-23T02:10:24;16.75;;;13.93;;
11988;SDS011;6054;50.966;7.094;2022-07-23T02:12:51;15.85;;;13.23;;
11988;SDS011;6054;50.966;7.094;2022-07-23T02:15:19;16.15;;;13.07;;
11988;SDS011;6054;50.966;7.094;2022-07-23T02:17:46;24.67;;;13.93;;
11988;SDS011;6054;50.966;7.094;2022-07-23T02:20:13;17.60;;;13.20;;
11988;SDS011;6054;50.966;7.094;2022-07-23T02:22:40;17.10;;;13.07;;
11988;SDS011;6054;50.966;7.094;2022-07-23T02:25:07;19.02;;;14.52;;
11988;SDS011;6054;50.966;7.094;2022-07-23T02:27:35;18.25;;;13.32;;
11988;SDS011;6054;50.966;7.094;2022-07-23T02:30:02;14.82;;;12.85;;
11988;SDS011;6054;50.966;7.094;2022-07-23T02:32:31;16.10;;;13.10;;
11988;SDS011;6054;50.966;7.094;2022-07-23T02:34:58;16.92;;;12.68;;
11988;SDS011;6054;50.966;7.094;2022-07-23T02:37:25;16.42;;;13.05;;
11988;SDS011;6054;50.966;7.094;2022-07-23T02:39:52;17.05;;;13.85;;
11988;SDS011;6054;50.966;7.094;2022-07-23T02:42:19;15.93;;;12.68;;
11988;SDS011;6054;50.966;7.094;2022-07-23T02:44:46;15.25;;;12.38;;
11988;SDS011;6054;50.966;7.094;2022-07-23T02:47:13;14.82;;;12.30;;
11988;SDS011;6054;50.966;7.094;2022-07-23T02:49:41;19.00;;;13.30;;
11988;SDS011;6054;50.966;7.094;2022-07-23T02:52:08;15.35;;;12.82;;
11988;SDS011;6054;50.966;7.094;2022-07-23T02:54:35;15.93;;;13.02;;
11988;SDS011;6054;50.966;7.094;2022-07-23T02:57:02;15.93;;;12.15;;
11988;SDS011;6054;50.966;7.094;2022-07-23T02:59:29;15.40;;;11.93;;
11988;SDS011;6054;50.966;7.094;2022-07-23T03:01:56;15.93;;;11.90;;
11988;SDS011;6054;50.966;7.094;2022-07-23T03:04:23;15.82;;;11.77;;
11988;SDS011;6054;50.966;7.094;2022-07-23T03:06:51;15.48;;;11.82;;
11988;SDS011;6054;50.966;7.094;2022-07-23T03:09:18;16.60;;;12.63;;
11988;SDS011;6054;50.966;7.094;2022-07-23T03:11:45;19.63;;;12.50;;
11988;SDS011;6054;50.966;7.094;2022-07-23T03:14:12;15.55;;;12.40;;
11988;SDS011;6054;50.966;7.094;2022-07-23T03:16:41;14.40;;;12.25;;
11988;SDS011;6054;50.966;7.094;2022-07-23T03:19:08;15.07;;;12.50;;
11988;SDS011;6054;50.966;7.094;2022-07-23T03:21:35;16.23;;;11.95;;
11988;SDS011;6054;50.966;7.094;2022-07-23T03:24:06;13.27;;;11.63;;
11988;SDS011;6054;50.966;7.094;2022-07-23T03:26:33;14.35;;;12.15;;
11988;SDS011;6054;50.966;7.094;2022-07-23T03:29:00;18.10;;;13.23;;
11988;SDS011;6054;50.966;7.094;2022-07-23T03:31:28;15.02;;;12.52;;
11988;SDS011;6054;50.966;7.094;2022-07-23T03:33:56;14.48;;;12.80;;
11988;SDS011;6054;50.966;7.094;2022-07-23T03:36:22;13.15;;;11.63;;
11988;SDS011;6054;50.966;7.094;2022-07-23T03:38:49;15.35;;;12.00;;
11988;SDS011;6054;50.966;7.094;2022-07-23T03:41:18;13.60;;;11.60;;
11988;SDS011;6054;50.966;7.094;2022-07-23T03:43:44;15.82;;;12.60;;
11988;SDS011;6054;50.966;7.094;2022-07-23T03:46:11;14.32;;;11.27;;
11988;SDS011;6054;50.966;7.094;2022-07-23T03:48:38;14.23;;;12.40;;
11988;SDS011;6054;50.966;7.094;2022-07-23T03:51:05;14.05;;;11.55;;
11988;SDS011;6054;50.966;7.094;2022-07-23T03:53:32;16.33;;;12.73;;
11988;SDS011;6054;50.966;7.094;2022-07-23T03:55:59;15.27;;;12.02;;
11988;SDS011;6054;50.966;7.094;2022-07-23T03:58:27;13.25;;;11.82;;
11988;SDS011;6054;50.966;7.094;2022-07-23T04:00:54;14.88;;;11.68;;
11988;SDS011;6054;50.966;7.094;2022-07-23T04:03:21;15.18;;;12.48;;
11988;SDS011;6054;50.966;7.094;2022-07-23T04:05:48;14.98;;;11.65;;
11988;SDS011;6054;50.966;7.094;2022-07-23T04:08:14;13.25;;;11.25;;
11988;SDS011;6054;50.966;7.094;2022-07-23T04:10:41;14.98;;;12.10;;
11988;SDS011;6054;50.966;7.094;2022-07-23T04:13:08;16.40;;;12.68;;
11988;SDS011;6054;50.966;7.094;2022-07-23T04:15:36;18.48;;;12.85;;
11988;SDS011;6054;50.966;7.094;2022-07-23T04:18:03;12.90;;;11.45;;
11988;SDS011;6054;50.966;7.094;2022-07-23T04:20:30;14.88;;;11.82;;
11988;SDS011;6054;50.966;7.094;2022-07-23T04:22:57;14.85;;;11.48;;
11988;SDS011;6054;50.966;7.094;2022-07-23T04:25:24;16.40;;;11.85;;
11988;SDS011;6054;50.966;7.094;2022-07-23T04:27:51;14.60;;;11.85;;
11988;SDS011;6054;50.966;7.094;2022-07-23T04:30:17;15.43;;;11.52;;
11988;SDS011;6054;50.966;7.094;2022-07-23T04:32:46;15.65;;;11.98;;
11988;SDS011;6054;50.966;7.094;2022-07-23T04:35:12;16.60;;;12.70;;
11988;SDS011;6054;50.966;7.094;2022-07-23T04:37:39;14.05;;;11.43;;
11988;SDS011;6054;50.966;7.094;2022-07-23T04:40:06;15.10;;;11.60;;
11988;SDS011;6054;50.966;7.094;2022-07-23T04:42:34;13.75;;;12.23;;
11988;SDS011;6054;50.966;7.094;2022-07-23T04:45:01;12.75;;;11.23;;
11988;SDS011;6054;50.966;7.094;2022-07-23T04:47:28;14.38;;;11.32;;
11988;SDS011;6054;50.966;7.094;2022-07-23T04:49:57;14.25;;;11.48;;
11988;SDS011;6054;50.966;7.094;2022-07-23T04:52:24;14.93;;;12.18;;
11988;SDS011;6054;50.966;7.094;2022-07-23T04:54:50;15.52;;;12.45;;
11988;SDS011;6054;50.966;7.094;2022-07-23T04:57:17;15.43;;;12.50;;
11988;SDS011;6054;50.966;7.094;2022-07-23T04:59:44;14.98;;;12.32;;
11988;SDS011;6054;50.966;7.094;2022-07-23T05:02:11;15.10;;;12.30;;
11988;SDS011;6054;50.966;7.094;2022-07-23T05:04:37;15.38;;;12.43;;
11988;SDS011;6054;50.966;7.094;2022-07-23T05:07:06;16.88;;;13.32;;
11988;SDS011;6054;50.966;7.094;2022-07-23T05:09:33;17.20;;;12.32;;
11988;SDS011;6054;50.966;7.094;2022-07-23T05:11:59;16.15;;;12.35;;
11988;SDS011;6054;50.966;7.094;2022-07-23T05:14:26;14.25;;;11.52;;
11988;SDS011;6054;50.966;7.094;2022-07-23T05:16:53;13.82;;;11.65;;
11988;SDS011;6054;50.966;7.094;2022-07-23T05:19:20;18.95;;;12.65;;
11988;SDS011;6054;50.966;7.094;2022-07-23T05:21:47;15.52;;;12.40;;
11988;SDS011;6054;50.966;7.094;2022-07-23T05:24:15;17.00;;;12.75;;
11988;SDS011;6054;50.966;7.094;2022-07-23T05:26:42;15.40;;;12.50;;
11988;SDS011;6054;50.966;7.094;2022-07-23T05:29:09;16.10;;;12.57;;
11988;SDS011;6054;50.966;7.094;2022-07-23T05:31:35;17.38;;;12.15;;
11988;SDS011;6054;50.966;7.094;2022-07-23T05:34:02;15.18;;;11.43;;
11988;SDS011;6054;50.966;7.094;2022-07-23T05:36:30;15.90;;;12.25;;
11988;SDS011;6054;50.966;7.094;2022-07-23T05:38:57;14.40;;;11.90;;
11988;SDS011;6054;50.966;7.094;2022-07-23T05:41:25;16.35;;;12.30;;
11988;SDS011;6054;50.966;7.094;2022-07-23T05:43:52;13.88;;;11.52;;
11988;SDS011;6054;50.966;7.094;2022-07-23T05:46:19;16.30;;;11.73;;
11988;SDS011;6054;50.966;7.094;2022-07-23T05:48:45;16.92;;;12.10;;
11988;SDS011;6054;50.966;7.094;2022-07-23T05:51:18;17.75;;;12.60;;
11988;SDS011;6054;50.966;7.094;2022-07-23T05:53:45;14.73;;;11.32;;
11988;SDS011;6054;50.966;7.094;2022-07-23T05:56:12;15.88;;;11.95;;
11988;SDS011;6054;50.966;7.094;2022-07-23T05:58:40;13.55;;;11.55;;
11988;SDS011;6054;50.966;7.094;2022-07-23T06:01:07;13.73;;;11.07;;
11988;SDS011;6054;50.966;7.094;2022-07-23T06:03:34;13.73;;;11.30;;
11988;SDS011;6054;50.966;7.094;2022-07-23T06:06:01;13.48;;;11.32;;
11988;SDS011;6054;50.966;7.094;2022-07-23T06:08:28;15.27;;;11.32;;
11988;SDS011;6054;50.966;7.094;2022-07-23T06:10:55;17.25;;;11.02;;
11988;SDS011;6054;50.966;7.094;2022-07-23T06:13:22;14.27;;;11.52;;
11988;SDS011;6054;50.966;7.094;2022-07-23T06:15:50;14.40;;;11.20;;
11988;SDS011;6054;50.966;7.094;2022-07-23T06:18:17;14.48;;;10.55;;
11988;SDS011;6054;50.966;7.094;2022-07-23T06:20:44;12.32;;;9.82;;
11988;SDS011;6054;50.966;7.094;2022-07-23T06:23:11;13.75;;;9.88;;
11988;SDS011;6054;50.966;7.094;2022-07-23T06:25:38;13.88;;;10.13;;
11988;SDS011;6054;50.966;7.094;2022-07-23T06:28:05;15.80;;;10.93;;
11988;SDS011;6054;50.966;7.094;2022-07-23T06:30:31;13.88;;;9.68;;
11988;SDS011;6054;50.966;7.094;2022-07-23T06:33:00;12.63;;;9.10;;
11988;SDS011;6054;50.966;7.094;2022-07-23T06:35:26;14.35;;;10.15;;
11988;SDS011;6054;50.966;7.094;2022-07-23T06:37:53;13.18;;;9.73;;
11988;SDS011;6054;50.966;7.094;2022-07-23T06:40:20;15.40;;;9.13;;
11988;SDS011;6054;50.966;7.094;2022-07-23T06:42:47;11.80;;;9.18;;
11988;SDS011;6054;50.966;7.094;2022-07-23T06:45:14;12.27;;;8.75;;
11988;SDS011;6054;50.966;7.094;2022-07-23T06:47:41;15.05;;;8.98;;
11988;SDS011;6054;50.966;7.094;2022-07-23T06:50:09;12.65;;;8.70;;
11988;SDS011;6054;50.966;7.094;2022-07-23T06:52:36;11.85;;;8.48;;
11988;SDS011;6054;50.966;7.094;2022-07-23T06:55:03;14.02;;;8.40;;
11988;SDS011;6054;50.966;7.094;2022-07-23T06:57:30;10.45;;;8.43;;
11988;SDS011;6054;50.966;7.094;2022-07-23T06:59:57;12.00;;;8.23;;
11988;SDS011;6054;50.966;7.094;2022-07-23T07:02:24;11.63;;;7.55;;
11988;SDS011;6054;50.966;7.094;2022-07-23T07:04:51;9.98;;;8.18;;
11988;SDS011;6054;50.966;7.094;2022-07-23T07:07:19;10.60;;;7.72;;
11988;SDS011;6054;50.966;7.094;2022-07-23T07:09:46;10.85;;;7.50;;
11988;SDS011;6054;50.966;7.094;2022-07-23T07:12:13;12.80;;;8.35;;
11988;SDS011;6054;50.966;7.094;2022-07-23T07:14:40;11.07;;;8.00;;
11988;SDS011;6054;50.966;7.094;2022-07-23T07:17:06;10.63;;;8.15;;
11988;SDS011;6054;50.966;7.094;2022-07-23T07:19:35;9.13;;;7.03;;
11988;SDS011;6054;50.966;7.094;2022-07-23T07:22:02;9.15;;;7.50;;
11988;SDS011;6054;50.966;7.094;2022-07-23T07:24:30;8.13;;;6.70;;
11988;SDS011;6054;50.966;7.094;2022-07-23T07:26:57;10.15;;;8.10;;
11988;SDS011;6054;50.966;7.094;2022-07-23T07:29:24;13.27;;;7.45;;
11988;SDS011;6054;50.966;7.094;2022-07-23T07:31:52;8.52;;;6.55;;
11988;SDS011;6054;50.966;7.094;2022-07-23T07:34:18;8.02;;;6.68;;
11988;SDS011;6054;50.966;7.094;2022-07-23T07:36:45;9.65;;;7.35;;
11988;SDS011;6054;50.966;7.094;2022-07-23T07:39:12;8.93;;;7.03;;
11988;SDS011;6054;50.966;7.094;2022-07-23T07:41:40;9.10;;;8.20;;
11988;SDS011;6054;50.966;7.094;2022-07-23T07:44:07;14.25;;;9.27;;
11988;SDS011;6054;50.966;7.094;2022-07-23T07:46:34;13.93;;;8.30;;
11988;SDS011;6054;50.966;7.094;2022-07-23T07:49:01;13.50;;;8.35;;
11988;SDS011;6054;50.966;7.094;2022-07-23T07:51:28;10.40;;;7.82;;
11988;SDS011;6054;50.966;7.094;2022-07-23T07:53:55;9.70;;;8.27;;
11988;SDS011;6054;50.966;7.094;2022-07-23T07:56:22;12.13;;;9.18;;
11988;SDS011;6054;50.966;7.094;2022-07-23T07:58:50;11.00;;;8.68;;
11988;SDS011;6054;50.966;7.094;2022-07-23T08:01:17;12.95;;;9.35;;
11988;SDS011;6054;50.966;7.094;2022-07-23T08:03:45;13.45;;;9.02;;
11988;SDS011;6054;50.966;7.094;2022-07-23T08:06:12;12.55;;;8.10;;
11988;SDS011;6054;50.966;7.094;2022-07-23T08:08:39;13.23;;;9.45;;
11988;SDS011;6054;50.966;7.094;2022-07-23T08:11:05;11.73;;;9.30;;
11988;SDS011;6054;50.966;7.094;2022-07-23T08:13:32;12.45;;;9.52;;
11988;SDS011;6054;50.966;7.094;2022-07-23T08:16:01;10.73;;;8.25;;
11988;SDS011;6054;50.966;7.094;2022-07-23T08:18:29;10.88;;;8.75;;
11988;SDS011;6054;50.966;7.094;2022-07-23T08:20:56;13.70;;;8.55;;
11988;SDS011;6054;50.966;7.094;2022-07-23T08:23:23;9.43;;;8.10;;
11988;SDS011;6054;50.966;7.094;2022-07-23T08:25:49;11.30;;;8.27;;
11988;SDS011;6054;50.966;7.094;2022-07-23T08:28:16;11.77;;;8.27;;
11988;SDS011;6054;50.966;7.094;2022-07-23T08:30:43;11.95;;;9.07;;
11988;SDS011;6054;50.966;7.094;2022-07-23T08:33:13;10.80;;;8.50;;
11988;SDS011;6054;50.966;7.094;2022-07-23T08:35:42;10.77;;;7.07;;
11988;SDS011;6054;50.966;7.094;2022-07-23T08:38:11;10.20;;;7.65;;
11988;SDS011;6054;50.966;7.094;2022-07-23T08:40:40;8.95;;;7.28;;
11988;SDS011;6054;50.966;7.094;2022-07-23T08:43:09;11.30;;;7.15;;
11988;SDS011;6054;50.966;7.094;2022-07-23T08:45:38;12.52;;;7.45;;
11988;SDS011;6054;50.966;7.094;2022-07-23T08:48:07;11.05;;;7.32;;
11988;SDS011;6054;50.966;7.094;2022-07-23T08:50:43;9.77;;;7.43;;
11988;SDS011;6054;50.966;7.094;2022-07-23T08:53:11;10.27;;;7.22;;
11988;SDS011;6054;50.966;7.094;2022-07-23T08:55:38;9.45;;;6.32;;
11988;SDS011;6054;50.966;7.094;2022-07-23T08:58:05;8.13;;;5.55;;
11988;SDS011;6054;50.966;7.094;2022-07-23T09:00:32;7.07;;;5.65;;
11988;SDS011;6054;50.966;7.094;2022-07-23T09:02:59;11.80;;;6.22;;
11988;SDS011;6054;50.966;7.094;2022-07-23T09:05:26;6.97;;;6.10;;
11988;SDS011;6054;50.966;7.094;2022-07-23T09:08:04;6.88;;;6.07;;
11988;SDS011;6054;50.966;7.094;2022-07-23T09:10:42;8.20;;;6.18;;
11988;SDS011;6054;50.966;7.094;2022-07-23T09:16:04;6.60;;;5.80;;
11988;SDS011;6054;50.966;7.094;2022-07-23T09:18:33;7.05;;;6.35;;
11988;SDS011;6054;50.966;7.094;2022-07-23T09:21:20;7.72;;;6.68;;
11988;SDS011;6054;50.966;7.094;2022-07-23T09:23:51;9.55;;;6.50;;
11988;SDS011;6054;50.966;7.094;2022-07-23T09:26:24;8.45;;;6.45;;
11988;SDS011;6054;50.966;7.094;2022-07-23T09:28:56;9.05;;;5.85;;
11988;SDS011;6054;50.966;7.094;2022-07-23T09:31:25;7.35;;;5.47;;
11988;SDS011;6054;50.966;7.094;2022-07-23T09:36:47;7.40;;;5.47;;
11988;SDS011;6054;50.966;7.094;2022-07-23T09:39:16;8.90;;;5.55;;
11988;SDS011;6054;50.966;7.094;2022-07-23T09:41:51;7.00;;;5.47;;
11988;SDS011;6054;50.966;7.094;2022-07-23T09:44:19;10.55;;;6.32;;
11988;SDS011;6054;50.966;7.094;2022-07-23T09:46:47;8.68;;;6.63;;
11988;SDS011;6054;50.966;7.094;2022-07-23T09:49:16;8.77;;;5.80;;
11988;SDS011;6054;50.966;7.094;2022-07-23T09:51:46;7.43;;;6.35;;
11988;SDS011;6054;50.966;7.094;2022-07-23T09:54:29;56.72;;;10.18;;
11988;SDS011;6054;50.966;7.094;2022-07-23T09:56:59;10.50;;;5.38;;
11988;SDS011;6054;50.966;7.094;2022-07-23T09:59:27;8.07;;;5.97;;
11988;SDS011;6054;50.966;7.094;2022-07-23T10:01:56;6.05;;;5.47;;
11988;SDS011;6054;50.966;7.094;2022-07-23T10:04:24;10.35;;;6.10;;
11988;SDS011;6054;50.966;7.094;2022-07-23T10:06:56;6.60;;;5.80;;
11988;SDS011;6054;50.966;7.094;2022-07-23T10:09:25;8.65;;;5.55;;
11988;SDS011;6054;50.966;7.094;2022-07-23T10:11:58;6.20;;;5.40;;
11988;SDS011;6054;50.966;7.094;2022-07-23T10:14:45;5.93;;;5.32;;
11988;SDS011;6054;50.966;7.094;2022-07-23T10:17:13;9.68;;;5.65;;
11988;SDS011;6054;50.966;7.094;2022-07-23T10:19:40;6.55;;;5.85;;
11988;SDS011;6054;50.966;7.094;2022-07-23T10:22:09;7.18;;;6.15;;
11988;SDS011;6054;50.966;7.094;2022-07-23T10:24:45;6.50;;;5.45;;
11988;SDS011;6054;50.966;7.094;2022-07-23T10:30:04;7.80;;;5.88;;
11988;SDS011;6054;50.966;7.094;2022-07-23T10:32:36;6.38;;;5.00;;
11988;SDS011;6054;50.966;7.094;2022-07-23T10:35:12;6.00;;;5.10;;
11988;SDS011;6054;50.966;7.094;2022-07-23T10:37:49;4.07;;;3.72;;
11988;SDS011;6054;50.966;7.094;2022-07-23T10:40:20;4.63;;;3.88;;
11988;SDS011;6054;50.966;7.094;2022-07-23T10:42:50;5.70;;;4.60;;
11988;SDS011;6054;50.966;7.094;2022-07-23T10:45:28;6.38;;;5.38;;
11988;SDS011;6054;50.966;7.094;2022-07-23T10:48:11;6.65;;;4.50;;
11988;SDS011;6054;50.966;7.094;2022-07-23T10:50:39;4.97;;;4.47;;
11988;SDS011;6054;50.966;7.094;2022-07-23T10:53:10;5.72;;;5.22;;
11988;SDS011;6054;50.966;7.094;2022-07-23T10:55:47;6.50;;;5.03;;
11988;SDS011;6054;50.966;7.094;2022-07-23T10:58:21;6.93;;;4.35;;
11988;SDS011;6054;50.966;7.094;2022-07-23T11:00:49;6.28;;;4.25;;
11988;SDS011;6054;50.966;7.094;2022-07-23T11:03:33;6.38;;;5.20;;
11988;SDS011;6054;50.966;7.094;2022-07-23T11:06:03;5.82;;;4.95;;
11988;SDS011;6054;50.966;7.094;2022-07-23T11:08:31;6.40;;;5.10;;
11988;SDS011;6054;50.966;7.094;2022-07-23T11:11:08;6.85;;;4.80;;
11988;SDS011;6054;50.966;7.094;2022-07-23T11:13:47;5.25;;;4.78;;
11988;SDS011;6054;50.966;7.094;2022-07-23T11:16:15;6.10;;;4.93;;
11988;SDS011;6054;50.966;7.094;2022-07-23T11:21:47;4.82;;;4.07;;
11988;SDS011;6054;50.966;7.094;2022-07-23T11:24:24;5.15;;;3.83;;
11988;SDS011;6054;50.966;7.094;2022-07-23T11:26:55;4.30;;;3.90;;
11988;SDS011;6054;50.966;7.094;2022-07-23T11:37:47;5.03;;;4.22;;
11988;SDS011;6054;50.966;7.094;2022-07-23T11:40:18;4.68;;;4.38;;
11988;SDS011;6054;50.966;7.094;2022-07-23T11:42:51;9.65;;;8.68;;
11988;SDS011;6054;50.966;7.094;2022-07-23T11:45:21;5.15;;;4.57;;
11988;SDS011;6054;50.966;7.094;2022-07-23T11:47:49;6.75;;;5.60;;
11988;SDS011;6054;50.966;7.094;2022-07-23T11:50:15;6.75;;;4.95;;
11988;SDS011;6054;50.966;7.094;2022-07-23T11:52:42;4.88;;;4.47;;
11988;SDS011;6054;50.966;7.094;2022-07-23T11:55:10;7.07;;;4.05;;
11988;SDS011;6054;50.966;7.094;2022-07-23T11:57:41;5.68;;;3.88;;
11988;SDS011;6054;50.966;7.094;2022-07-23T12:00:08;4.88;;;4.05;;
11988;SDS011;6054;50.966;7.094;2022-07-23T12:02:38;4.13;;;3.83;;
11988;SDS011;6054;50.966;7.094;2022-07-23T12:05:07;4.35;;;4.05;;
11988;SDS011;6054;50.966;7.094;2022-07-23T12:07:37;6.20;;;4.90;;
11988;SDS011;6054;50.966;7.094;2022-07-23T12:10:09;5.22;;;4.75;;
11988;SDS011;6054;50.966;7.094;2022-07-23T12:12:38;7.07;;;4.68;;
11988;SDS011;6054;50.966;7.094;2022-07-23T12:15:06;5.47;;;5.03;;
11988;SDS011;6054;50.966;7.094;2022-07-23T12:17:34;6.15;;;5.53;;
11988;SDS011;6054;50.966;7.094;2022-07-23T12:20:05;5.78;;;5.38;;
11988;SDS011;6054;50.966;7.094;2022-07-23T12:22:34;6.75;;;5.85;;
11988;SDS011;6054;50.966;7.094;2022-07-23T12:25:03;6.93;;;4.95;;
11988;SDS011;6054;50.966;7.094;2022-07-23T12:27:32;5.68;;;5.18;;
11988;SDS011;6054;50.966;7.094;2022-07-23T12:29:59;6.22;;;5.57;;
11988;SDS011;6054;50.966;7.094;2022-07-23T12:32:42;7.60;;;5.43;;
11988;SDS011;6054;50.966;7.094;2022-07-23T12:35:11;5.80;;;5.20;;
11988;SDS011;6054;50.966;7.094;2022-07-23T12:37:38;6.47;;;5.85;;
11988;SDS011;6054;50.966;7.094;2022-07-23T12:40:19;5.70;;;5.03;;
11988;SDS011;6054;50.966;7.094;2022-07-23T12:42:51;5.30;;;4.85;;
11988;SDS011;6054;50.966;7.094;2022-07-23T12:45:23;7.05;;;4.85;;
11988;SDS011;6054;50.966;7.094;2022-07-23T12:47:52;5.40;;;4.90;;
11988;SDS011;6054;50.966;7.094;2022-07-23T12:50:37;5.63;;;5.00;;
11988;SDS011;6054;50.966;7.094;2022-07-23T12:53:07;6.10;;;5.25;;
11988;SDS011;6054;50.966;7.094;2022-07-23T12:55:36;6.57;;;5.10;;
11988;SDS011;6054;50.966;7.094;2022-07-23T12:58:06;5.88;;;5.22;;
11988;SDS011;6054;50.966;7.094;2022-07-23T13:00:48;5.22;;;4.72;;
11988;SDS011;6054;50.966;7.094;2022-07-23T13:03:21;5.60;;;4.97;;
11988;SDS011;6054;50.966;7.094;2022-07-23T13:05:50;5.18;;;4.60;;
11988;SDS011;6054;50.966;7.094;2022-07-23T13:08:18;5.63;;;3.92;;
11988;SDS011;6054;50.966;7.094;2022-07-23T13:10:44;4.72;;;4.20;;
11988;SDS011;6054;50.966;7.094;2022-07-23T13:13:13;5.53;;;4.00;;
11988;SDS011;6054;50.966;7.094;2022-07-23T13:15:41;5.30;;;4.60;;
11988;SDS011;6054;50.966;7.094;2022-07-23T13:18:08;5.03;;;4.50;;
11988;SDS011;6054;50.966;7.094;2022-07-23T13:20:35;5.97;;;4.13;;
11988;SDS011;6054;50.966;7.094;2022-07-23T13:23:05;4.03;;;3.63;;
11988;SDS011;6054;50.966;7.094;2022-07-23T13:25:32;6.00;;;3.80;;
11988;SDS011;6054;50.966;7.094;2022-07-23T13:27:59;3.97;;;3.63;;
11988;SDS011;6054;50.966;7.094;2022-07-23T13:30:26;8.25;;;6.47;;
11988;SDS011;6054;50.966;7.094;2022-07-23T13:32:54;5.57;;;3.60;;
11988;SDS011;6054;50.966;7.094;2022-07-23T13:35:21;4.07;;;3.72;;
11988;SDS011;6054;50.966;7.094;2022-07-23T13:37:47;5.00;;;3.65;;
11988;SDS011;6054;50.966;7.094;2022-07-23T13:40:16;5.07;;;4.13;;
11988;SDS011;6054;50.966;7.094;2022-07-23T13:42:43;4.03;;;3.60;;
11988;SDS011;6054;50.966;7.094;2022-07-23T13:45:09;4.45;;;4.07;;
11988;SDS011;6054;50.966;7.094;2022-07-23T13:47:36;4.20;;;3.90;;
11988;SDS011;6054;50.966;7.094;2022-07-23T13:50:04;4.50;;;4.10;;
11988;SDS011;6054;50.966;7.094;2022-07-23T13:52:31;4.85;;;4.30;;
11988;SDS011;6054;50.966;7.094;2022-07-23T13:54:59;4.70;;;4.25;;
11988;SDS011;6054;50.966;7.094;2022-07-23T13:57:28;4.65;;;3.90;;
11988;SDS011;6054;50.966;7.094;2022-07-23T13:59:55;4.40;;;3.83;;
11988;SDS011;6054;50.966;7.094;2022-07-23T14:02:21;6.65;;;4.32;;
11988;SDS011;6054;50.966;7.094;2022-07-23T14:04:48;4.88;;;4.45;;
11988;SDS011;6054;50.966;7.094;2022-07-23T14:07:15;4.40;;;4.00;;
11988;SDS011;6054;50.966;7.094;2022-07-23T14:09:42;6.57;;;4.72;;
11988;SDS011;6054;50.966;7.094;2022-07-23T14:12:09;6.50;;;4.63;;
11988;SDS011;6054;50.966;7.094;2022-07-23T14:14:38;4.43;;;4.03;;
11988;SDS011;6054;50.966;7.094;2022-07-23T14:17:05;4.50;;;3.85;;
11988;SDS011;6054;50.966;7.094;2022-07-23T14:19:31;5.15;;;3.90;;
11988;SDS011;6054;50.966;7.094;2022-07-23T14:21:58;4.93;;;3.45;;
11988;SDS011;6054;50.966;7.094;2022-07-23T14:24:25;3.75;;;3.40;;
11988;SDS011;6054;50.966;7.094;2022-07-23T14:26:52;3.50;;;3.08;;
11988;SDS011;6054;50.966;7.094;2022-07-23T14:29:19;3.88;;;3.55;;
11988;SDS011;6054;50.966;7.094;2022-07-23T14:31:47;4.00;;;3.13;;
11988;SDS011;6054;50.966;7.094;2022-07-23T14:34:14;3.97;;;3.28;;
11988;SDS011;6054;50.966;7.094;2022-07-23T14:36:41;3.95;;;3.63;;
11988;SDS011;6054;50.966;7.094;2022-07-23T14:39:08;3.42;;;2.97;;
11988;SDS011;6054;50.966;7.094;2022-07-23T14:41:36;3.05;;;2.85;;
11988;SDS011;6054;50.966;7.094;2022-07-23T14:44:03;3.45;;;3.15;;
11988;SDS011;6054;50.966;7.094;2022-07-23T14:46:31;3.78;;;2.80;;
11988;SDS011;6054;50.966;7.094;2022-07-23T14:48:59;5.20;;;3.20;;
11988;SDS011;6054;50.966;7.094;2022-07-23T14:51:26;3.00;;;2.67;;
11988;SDS011;6054;50.966;7.094;2022-07-23T14:53:53;3.53;;;2.72;;
11988;SDS011;6054;50.966;7.094;2022-07-23T14:56:20;4.15;;;2.95;;
11988;SDS011;6054;50.966;7.094;2022-07-23T14:58:46;3.13;;;2.80;;
11988;SDS011;6054;50.966;7.094;2022-07-23T15:01:13;3.63;;;3.17;;
11988;SDS011;6054;50.966;7.094;2022-07-23T15:03:40;5.50;;;3.30;;
11988;SDS011;6054;50.966;7.094;2022-07-23T15:06:09;3.20;;;3.00;;
11988;SDS011;6054;50.966;7.094;2022-07-23T15:08:36;3.50;;;3.10;;
11988;SDS011;6054;50.966;7.094;2022-07-23T15:11:03;3.50;;;3.20;;
11988;SDS011;6054;50.966;7.094;2022-07-23T15:13:30;3.63;;;3.28;;
11988;SDS011;6054;50.966;7.094;2022-07-23T15:15:57;4.25;;;2.95;;